createdAt,value
2022-09-02T00:00:33.323Z,2.60
2022-09-02T00:03:08.147Z,2.80
2022-09-02T00:05:41.963Z,3.60
2022-09-02T00:08:15.967Z,5.50
2022-09-02T00:10:50.204Z,2.10
2022-09-02T00:13:23.849Z,3.40
2022-09-02T00:15:57.830Z,2.70
2022-09-02T00:18:32.749Z,2.00
2022-09-02T00:21:06.948Z,2.30
2022-09-02T00:23:41.483Z,3.00
2022-09-02T00:26:15.861Z,3.40
2022-09-02T00:28:55.995Z,3.30
2022-09-02T00:31:30.158Z,1.60
2022-09-02T00:34:04.357Z,3.30
2022-09-02T00:36:38.122Z,2.40
2022-09-02T00:39:12.489Z,2.40
2022-09-02T00:41:46.931Z,2.70
2022-09-02T00:44:22.021Z,2.20
2022-09-02T00:46:55.645Z,3.60
2022-09-02T00:49:30.926Z,2.00
2022-09-02T00:52:09.570Z,2.60
2022-09-02T00:54:47.587Z,3.20
2022-09-02T00:57:24.051Z,2.70
2022-09-02T01:00:02.823Z,6.00
2022-09-02T01:02:37.816Z,2.40
2022-09-02T01:05:16.053Z,4.10
2022-09-02T01:07:51.675Z,2.30
2022-09-02T01:10:27.549Z,2.50
2022-09-02T01:13:05.440Z,3.10
2022-09-02T01:15:42.087Z,2.30
2022-09-02T01:18:20.703Z,3.50
2022-09-02T01:20:54.428Z,4.20
2022-09-02T01:23:28.473Z,3.70
2022-09-02T01:26:05.603Z,3.80
2022-09-02T01:28:39.324Z,3.20
2022-09-02T01:31:13.206Z,2.90
2022-09-02T01:33:47.151Z,3.90
2022-09-02T01:36:21.403Z,3.10
2022-09-02T01:38:54.480Z,3.60
2022-09-02T01:41:28.043Z,2.40
2022-09-02T01:44:02.484Z,3.70
2022-09-02T01:46:36.860Z,1.90
2022-09-02T01:49:10.442Z,2.40
2022-09-02T01:51:45.552Z,2.20
2022-09-02T01:54:19.027Z,3.40
2022-09-02T01:56:52.671Z,2.40
2022-09-02T01:59:26.205Z,2.30
2022-09-02T02:01:59.663Z,3.50
2022-09-02T02:04:33.782Z,4.60
2022-09-02T02:07:08.093Z,3.90
2022-09-02T02:09:42.271Z,5.20
2022-09-02T02:12:20.366Z,3.00
2022-09-02T02:14:55.024Z,4.40
2022-09-02T02:17:29.223Z,1.80
2022-09-02T02:20:02.836Z,2.20
2022-09-02T02:22:37.075Z,2.20
2022-09-02T02:25:11.799Z,2.90
2022-09-02T02:27:45.963Z,2.90
2022-09-02T02:30:20.127Z,5.20
2022-09-02T02:32:53.874Z,3.50
2022-09-02T02:35:27.406Z,1.20
2022-09-02T02:38:02.818Z,2.70
2022-09-02T02:40:37.855Z,2.00
2022-09-02T02:43:11.303Z,2.90
2022-09-02T02:45:44.905Z,3.20
2022-09-02T02:48:19.320Z,3.00
2022-09-02T02:50:53.623Z,3.20
2022-09-02T02:53:30.035Z,4.00
2022-09-02T02:56:03.803Z,6.20
2022-09-02T02:58:37.967Z,3.70
2022-09-02T03:01:13.472Z,3.70
2022-09-02T03:03:47.171Z,3.20
2022-09-02T03:06:24.838Z,5.60
2022-09-02T03:09:01.089Z,4.00
2022-09-02T03:11:34.847Z,4.10
2022-09-02T03:14:08.922Z,3.20
2022-09-02T03:16:42.921Z,6.50
2022-09-02T03:19:16.532Z,4.80
2022-09-02T03:21:50.406Z,3.80
2022-09-02T03:24:23.940Z,5.10
2022-09-02T03:26:57.420Z,5.20
2022-09-02T03:29:30.872Z,3.30
2022-09-02T03:32:05.081Z,2.80
2022-09-02T03:34:42.173Z,3.40
2022-09-02T03:37:15.935Z,4.40
2022-09-02T03:39:49.386Z,2.90
2022-09-02T03:42:22.785Z,3.40
2022-09-02T03:44:57.014Z,4.90
2022-09-02T03:47:31.148Z,9.60
2022-09-02T03:50:05.587Z,4.10
2022-09-02T03:52:39.047Z,7.80
2022-09-02T03:55:14.034Z,4.20
2022-09-02T03:57:47.529Z,6.20
2022-09-02T04:00:24.445Z,7.70
2022-09-02T04:02:58.515Z,4.30
2022-09-02T04:05:32.018Z,6.00
2022-09-02T04:08:06.909Z,6.00
2022-09-02T04:10:40.882Z,9.40
2022-09-02T04:13:14.421Z,5.10
2022-09-02T04:15:49.690Z,7.10
2022-09-02T04:18:25.540Z,7.70
2022-09-02T04:21:02.957Z,6.50
2022-09-02T04:23:37.079Z,7.00
2022-09-02T04:26:12.857Z,6.90
2022-09-02T04:28:46.810Z,6.20
2022-09-02T04:31:21.887Z,9.20
2022-09-02T04:33:57.259Z,6.00
2022-09-02T04:36:32.211Z,7.10
2022-09-02T04:39:09.942Z,12.10
2022-09-02T04:41:43.547Z,6.70
2022-09-02T04:44:18.511Z,6.30
2022-09-02T04:46:53.394Z,12.60
2022-09-02T04:49:31.929Z,10.40
2022-09-02T04:52:05.859Z,7.90
2022-09-02T04:54:39.546Z,7.30
2022-09-02T04:57:13.409Z,7.80
2022-09-02T04:59:47.079Z,8.10
2022-09-02T05:02:21.085Z,8.10
2022-09-02T05:04:55.383Z,12.90
2022-09-02T05:07:34.100Z,8.80
2022-09-02T05:10:08.776Z,9.20
2022-09-02T05:12:45.851Z,9.20
2022-09-02T05:15:19.418Z,7.30
2022-09-02T05:17:54.207Z,7.70
2022-09-02T05:20:28.820Z,8.40
2022-09-02T05:23:02.973Z,10.80
2022-09-02T05:25:37.953Z,4.90
2022-09-02T05:28:11.951Z,11.70
2022-09-02T05:30:46.104Z,7.30
2022-09-02T05:33:19.423Z,12.00
2022-09-02T05:35:54.773Z,5.80
2022-09-02T05:38:29.995Z,8.40
2022-09-02T05:41:08.673Z,8.90
2022-09-02T05:43:44.924Z,8.10
2022-09-02T05:46:22.534Z,7.70
2022-09-02T05:49:12.907Z,5.00
2022-09-02T05:51:53.416Z,7.00
2022-09-02T05:54:31.656Z,6.00
2022-09-02T05:57:09.420Z,5.00
2022-09-02T05:59:46.582Z,4.90
2022-09-02T06:02:22.224Z,6.60
2022-09-02T06:04:56.802Z,6.50
2022-09-02T06:07:30.619Z,7.70
2022-09-02T06:10:06.608Z,7.80
2022-09-02T06:12:42.637Z,5.10
2022-09-02T06:15:16.966Z,7.30
2022-09-02T06:17:50.209Z,6.30
2022-09-02T06:20:23.594Z,7.00
2022-09-02T06:22:57.821Z,5.00
2022-09-02T06:25:31.414Z,5.90
2022-09-02T06:28:07.438Z,6.70
2022-09-02T06:30:46.978Z,7.30
2022-09-02T06:33:21.936Z,7.40
2022-09-02T06:35:55.755Z,6.10
2022-09-02T06:38:29.028Z,10.20
2022-09-02T06:41:02.816Z,3.90
2022-09-02T06:43:43.814Z,5.10
2022-09-02T06:46:29.104Z,3.50
2022-09-02T06:49:04.646Z,4.30
2022-09-02T06:51:40.704Z,7.00
2022-09-02T06:54:16.706Z,6.00
2022-09-02T06:56:51.946Z,4.40
2022-09-02T06:59:28.145Z,5.60
2022-09-02T07:02:04.254Z,4.50
2022-09-02T07:04:57.622Z,6.70
2022-09-02T07:07:31.881Z,7.90
2022-09-02T07:10:15.337Z,3.40
2022-09-02T07:12:52.966Z,9.80
2022-09-02T07:15:27.065Z,7.60
2022-09-02T07:18:00.623Z,7.20
2022-09-02T07:20:46.175Z,4.50
2022-09-02T07:23:19.791Z,6.40
2022-09-02T07:25:55.810Z,8.20
2022-09-02T07:28:30.107Z,6.70
2022-09-02T07:31:04.527Z,6.60
2022-09-02T07:33:38.771Z,6.30
2022-09-02T07:36:14.273Z,5.20
2022-09-02T07:38:48.060Z,4.60
2022-09-02T07:41:22.093Z,4.80
2022-09-02T07:43:59.529Z,6.70
2022-09-02T07:46:35.094Z,5.90
2022-09-02T07:49:11.417Z,7.80
2022-09-02T07:51:49.668Z,7.70
2022-09-02T07:54:26.063Z,8.80
2022-09-02T07:57:00.120Z,9.10
2022-09-02T07:59:33.544Z,5.90
2022-09-02T08:02:08.327Z,7.30
2022-09-02T08:04:42.066Z,5.40
2022-09-02T08:07:17.234Z,4.50
2022-09-02T08:09:50.815Z,5.60
2022-09-02T08:12:24.539Z,4.00
2022-09-02T08:14:59.081Z,5.40
2022-09-02T08:17:32.953Z,4.50
2022-09-02T08:20:11.710Z,6.30
2022-09-02T08:22:50.817Z,4.20
2022-09-02T08:25:33.129Z,5.50
2022-09-02T08:28:07.293Z,8.70
2022-09-02T08:30:41.020Z,4.30
2022-09-02T08:33:14.253Z,5.50
2022-09-02T08:35:48.555Z,3.10
2022-09-02T08:38:22.768Z,3.80
2022-09-02T08:40:56.236Z,4.70
2022-09-02T08:43:37.846Z,5.00
2022-09-02T08:46:17.055Z,5.80
2022-09-02T08:48:54.578Z,3.50
2022-09-02T08:51:37.151Z,5.40
2022-09-02T08:54:18.010Z,3.90
2022-09-02T08:56:52.089Z,5.70
2022-09-02T08:59:28.457Z,4.40
2022-09-02T09:02:09.303Z,3.80
2022-09-02T09:05:07.656Z,3.30
2022-09-02T09:07:50.435Z,2.70
2022-09-02T09:10:28.746Z,2.30
2022-09-02T09:13:17.253Z,3.90
2022-09-02T09:15:57.975Z,2.00
2022-09-02T09:18:39.463Z,5.40
2022-09-02T09:21:15.003Z,2.80
2022-09-02T09:23:50.825Z,3.90
2022-09-02T09:26:29.233Z,6.10
2022-09-02T09:29:05.088Z,4.40
2022-09-02T09:31:41.160Z,2.60
2022-09-02T09:34:15.912Z,5.50
2022-09-02T09:36:56.374Z,2.50
2022-09-02T09:39:32.851Z,4.50
2022-09-02T09:42:16.185Z,4.30
2022-09-02T09:44:49.975Z,2.80
2022-09-02T09:47:26.235Z,1.50
2022-09-02T09:50:14.566Z,5.90
2022-09-02T09:52:48.177Z,1.50
2022-09-02T09:55:25.225Z,4.80
2022-09-02T09:58:11.724Z,4.30
2022-09-02T10:00:46.385Z,2.40
2022-09-02T10:03:32.928Z,7.20
2022-09-02T10:06:23.132Z,1.50
2022-09-02T10:08:59.259Z,5.00
2022-09-02T10:11:34.325Z,7.00
2022-09-02T10:14:10.426Z,5.00
2022-09-02T10:16:56.615Z,4.60
2022-09-02T10:19:39.446Z,6.30
2022-09-02T10:22:59.057Z,4.20
2022-09-02T10:25:42.080Z,3.70
2022-09-02T10:28:30.539Z,2.70
2022-09-02T10:31:13.762Z,2.20
2022-09-02T10:34:03.203Z,3.50
2022-09-02T10:36:47.301Z,5.10
2022-09-02T10:39:30.532Z,5.40
2022-09-02T10:42:16.568Z,3.80
2022-09-02T10:45:04.231Z,1.60
2022-09-02T10:47:40.689Z,1.70
2022-09-02T10:50:24.431Z,3.90
2022-09-02T10:53:17.889Z,3.10
2022-09-02T10:55:59.052Z,2.10
2022-09-02T10:58:46.326Z,2.70
2022-09-02T11:01:24.455Z,1.50
2022-09-02T11:04:07.209Z,4.40
2022-09-02T11:07:02.844Z,2.90
2022-09-02T11:09:42.227Z,1.70
2022-09-02T11:12:20.385Z,1.10
2022-09-02T11:15:05.621Z,4.00
2022-09-02T11:17:45.907Z,5.20
2022-09-02T11:20:30.923Z,3.20
2022-09-02T11:23:10.773Z,3.20
2022-09-02T11:25:49.554Z,1.60
2022-09-02T11:28:38.772Z,2.10
2022-09-02T11:31:19.326Z,1.00
2022-09-02T11:33:58.711Z,3.20
2022-09-02T11:36:33.458Z,2.80
2022-09-02T11:39:12.311Z,2.60
2022-09-02T11:42:00.805Z,4.40
2022-09-02T11:45:10.661Z,3.50
2022-09-02T11:48:14.310Z,1.80
2022-09-02T11:54:04.820Z,3.00
2022-09-02T11:56:43.291Z,4.80
2022-09-02T11:59:45.746Z,3.10
2022-09-02T12:02:37.413Z,5.50
2022-09-02T12:05:45.316Z,4.00
2022-09-02T12:08:56.391Z,2.60
2022-09-02T12:11:53.512Z,3.70
2022-09-02T12:15:05.544Z,2.90
2022-09-02T12:18:09.028Z,3.30
2022-09-02T12:21:16.588Z,1.10
2022-09-02T12:24:23.240Z,2.50
2022-09-02T12:27:26.301Z,3.90
2022-09-02T12:30:00.403Z,5.90
2022-09-02T12:33:08.276Z,4.30
2022-09-02T12:35:59.896Z,2.10
2022-09-02T12:38:39.185Z,4.60
2022-09-02T12:41:22.457Z,2.80
2022-09-02T12:44:30.135Z,2.30
2022-09-02T12:47:10.630Z,3.30
2022-09-02T12:49:56.495Z,2.40
2022-09-02T12:52:48.782Z,3.60
2022-09-02T12:55:29.479Z,2.50
2022-09-02T12:58:14.883Z,4.30
2022-09-02T13:01:02.958Z,0.90
2022-09-02T13:04:14.989Z,1.70
2022-09-02T13:07:13.836Z,1.50
2022-09-02T13:10:26.027Z,2.80
2022-09-02T13:13:24.743Z,0.80
2022-09-02T13:16:19.362Z,2.70
2022-09-02T13:19:29.593Z,1.30
2022-09-02T13:22:24.276Z,2.20
2022-09-02T13:25:33.448Z,1.30
2022-09-02T13:28:42.501Z,3.00
2022-09-02T13:31:23.125Z,3.10
2022-09-02T13:34:05.611Z,2.50
2022-09-02T13:36:44.750Z,2.40
2022-09-02T13:39:20.295Z,1.30
2022-09-02T13:41:53.835Z,1.80
2022-09-02T13:44:29.828Z,1.70
2022-09-02T13:47:06.818Z,3.10
2022-09-02T13:49:42.571Z,4.30
2022-09-02T13:52:23.998Z,0.90
2022-09-02T13:55:09.677Z,1.90
2022-09-02T13:57:49.145Z,4.30
2022-09-02T14:00:33.946Z,2.80
2022-09-02T14:03:10.075Z,5.80
2022-09-02T14:05:47.627Z,3.10
2022-09-02T14:08:24.478Z,1.90
2022-09-02T14:10:58.725Z,1.00
2022-09-02T14:13:32.127Z,2.30
2022-09-02T14:16:28.031Z,3.10
2022-09-02T14:19:14.993Z,1.10
2022-09-02T14:21:54.743Z,0.60
2022-09-02T14:24:30.953Z,2.50
2022-09-02T14:27:04.598Z,5.40
2022-09-02T14:29:45.332Z,4.60
2022-09-02T14:32:23.478Z,4.50
2022-09-02T14:35:24.139Z,4.70
2022-09-02T14:37:59.907Z,3.30
2022-09-02T14:40:39.254Z,3.10
2022-09-02T14:43:17.868Z,2.80
2022-09-02T14:45:52.287Z,2.90
2022-09-02T14:48:28.454Z,4.00
2022-09-02T14:51:07.416Z,2.80
2022-09-02T14:53:45.333Z,3.30
2022-09-02T14:56:39.529Z,1.00
2022-09-02T14:59:13.094Z,3.50
2022-09-02T15:01:48.773Z,2.70
2022-09-02T15:04:22.431Z,1.90
2022-09-02T15:06:57.106Z,7.20
2022-09-02T15:09:30.139Z,5.50
2022-09-02T15:12:03.883Z,2.30
2022-09-02T15:14:37.570Z,2.50
2022-09-02T15:17:15.509Z,2.50
2022-09-02T15:19:48.745Z,3.60
2022-09-02T15:22:23.101Z,2.80
2022-09-02T15:24:58.608Z,3.10
2022-09-02T15:27:32.215Z,2.80
2022-09-02T15:30:06.508Z,3.80
2022-09-02T15:32:40.463Z,3.00
2022-09-02T15:35:14.513Z,1.80
2022-09-02T15:37:50.871Z,2.90
2022-09-02T15:40:25.052Z,2.90
2022-09-02T15:42:58.755Z,2.70
2022-09-02T15:45:31.936Z,2.30
2022-09-02T15:48:07.391Z,2.80
2022-09-02T15:50:41.665Z,4.10
2022-09-02T15:53:16.067Z,4.00
2022-09-02T15:55:49.995Z,1.40
2022-09-02T15:58:23.524Z,3.20
2022-09-02T16:00:58.622Z,4.10
2022-09-02T16:03:32.727Z,4.10
2022-09-02T16:06:08.824Z,4.20
2022-09-02T16:08:42.178Z,2.00
2022-09-02T16:11:15.563Z,1.70
2022-09-02T16:13:49.328Z,5.20
2022-09-02T16:16:23.427Z,4.90
2022-09-02T16:18:57.501Z,3.70
2022-09-02T16:21:30.737Z,6.20
2022-09-02T16:24:04.570Z,3.60
2022-09-02T16:26:39.574Z,4.90
2022-09-02T16:29:15.230Z,6.30
2022-09-02T16:32:02.362Z,4.80
2022-09-02T16:34:45.804Z,4.90
2022-09-02T16:37:19.286Z,5.00
2022-09-02T16:39:53.843Z,5.30
2022-09-02T16:42:27.682Z,5.80
2022-09-02T16:45:01.740Z,5.30
2022-09-02T16:47:35.271Z,8.50
2022-09-02T16:50:12.707Z,4.80
2022-09-02T16:52:46.297Z,4.40
2022-09-02T16:55:19.621Z,4.30
2022-09-02T16:57:53.178Z,4.90
2022-09-02T17:00:26.383Z,5.20
2022-09-02T17:02:59.991Z,4.70
2022-09-02T17:05:33.410Z,12.90
2022-09-02T17:08:07.623Z,5.80
2022-09-02T17:10:41.171Z,4.00
2022-09-02T17:13:15.008Z,7.40
2022-09-02T17:15:48.369Z,3.40
2022-09-02T17:18:21.678Z,2.80
2022-09-02T17:21:11.701Z,3.60
2022-09-02T17:23:45.124Z,3.70
2022-09-02T17:26:18.853Z,3.80
2022-09-02T17:28:55.000Z,5.40
2022-09-02T17:31:31.090Z,4.50
2022-09-02T17:34:05.814Z,3.90
2022-09-02T17:36:44.629Z,4.80
2022-09-02T17:39:22.363Z,6.00
2022-09-02T17:41:59.033Z,6.90
2022-09-02T17:44:35.263Z,4.50
2022-09-02T17:47:10.293Z,5.00
2022-09-02T17:49:45.015Z,4.20
2022-09-02T17:52:20.521Z,4.20
2022-09-02T17:54:55.557Z,5.60
2022-09-02T17:57:49.217Z,6.00
2022-09-02T18:00:27.244Z,10.20
2022-09-02T18:03:25.728Z,7.70
2022-09-02T18:08:46.860Z,3.70
2022-09-02T18:11:22.480Z,4.90
2022-09-02T18:14:07.769Z,6.40
2022-09-02T18:16:52.279Z,6.60
2022-09-02T18:19:39.466Z,9.30
2022-09-02T18:22:35.954Z,7.80
2022-09-02T18:25:24.268Z,5.80
2022-09-02T18:28:07.761Z,5.40
2022-09-02T18:30:49.516Z,6.90
2022-09-02T18:33:40.174Z,10.20
2022-09-02T18:36:25.803Z,6.00
2022-09-02T18:39:17.413Z,10.40
2022-09-02T18:42:05.474Z,12.70
2022-09-02T18:44:51.103Z,9.30
2022-09-02T18:47:32.727Z,12.70
2022-09-02T18:50:11.380Z,11.20
2022-09-02T18:52:54.127Z,11.70
2022-09-02T18:55:35.714Z,13.20
2022-09-02T18:58:15.156Z,13.80
2022-09-02T19:00:58.041Z,13.90
2022-09-02T19:03:37.097Z,12.40
2022-09-02T19:06:18.854Z,11.40
2022-09-02T19:09:03.316Z,11.20
2022-09-02T19:11:38.781Z,13.10
2022-09-02T19:14:26.778Z,13.30
2022-09-02T19:17:01.309Z,8.60
2022-09-02T19:19:35.723Z,16.50
2022-09-02T19:22:11.951Z,13.30
2022-09-02T19:24:49.147Z,12.20
2022-09-02T19:27:25.824Z,9.80
2022-09-02T19:30:05.823Z,9.60
2022-09-02T19:32:41.522Z,11.00
2022-09-02T19:35:18.678Z,9.70
2022-09-02T19:37:54.790Z,11.70
2022-09-02T19:40:31.874Z,9.50
2022-09-02T19:43:07.932Z,9.60
2022-09-02T19:45:41.441Z,7.70
2022-09-02T19:48:15.791Z,9.70
2022-09-02T19:50:50.181Z,6.10
2022-09-02T19:53:28.235Z,6.40
2022-09-02T19:56:02.095Z,6.30
2022-09-02T19:58:35.293Z,4.60
2022-09-02T20:01:10.218Z,6.20
2022-09-02T20:03:43.547Z,6.50
2022-09-02T20:06:17.002Z,5.90
2022-09-02T20:08:50.283Z,7.50
2022-09-02T20:11:23.880Z,6.10
2022-09-02T20:13:57.562Z,9.60
2022-09-02T20:16:31.374Z,6.60
2022-09-02T20:19:04.982Z,7.00
2022-09-02T20:21:43.661Z,10.40
2022-09-02T20:26:59.373Z,8.90
2022-09-02T20:29:48.150Z,7.30
2022-09-02T20:32:33.649Z,7.10
2022-09-02T20:35:16.814Z,7.10
2022-09-02T20:37:58.471Z,8.10
2022-09-02T20:40:38.737Z,6.90
2022-09-02T20:43:28.711Z,6.00
2022-09-02T20:46:10.457Z,7.10
2022-09-02T20:48:55.411Z,6.00
2022-09-02T20:51:36.461Z,8.10
2022-09-02T20:54:20.987Z,9.00
2022-09-02T20:57:04.375Z,11.00
2022-09-02T20:59:55.001Z,8.00
2022-09-02T21:02:34.441Z,12.80
2022-09-02T21:05:22.647Z,10.40
2022-09-02T21:08:03.387Z,12.00
2022-09-02T21:10:42.518Z,8.80
2022-09-02T21:13:22.473Z,8.70
2022-09-02T21:16:00.232Z,8.70
2022-09-02T21:18:40.495Z,9.30
2022-09-02T21:21:25.156Z,7.00
2022-09-02T21:24:04.924Z,7.90
2022-09-02T21:26:49.163Z,8.40
2022-09-02T21:29:29.000Z,6.00
2022-09-02T21:32:06.751Z,7.20
2022-09-02T21:34:48.373Z,10.30
2022-09-02T21:37:22.109Z,6.30
2022-09-02T21:39:58.282Z,9.40
2022-09-02T21:42:42.453Z,9.00
2022-09-02T21:45:24.941Z,8.30
2022-09-02T21:48:17.491Z,7.90
2022-09-02T21:50:58.986Z,7.60
2022-09-02T21:53:45.511Z,10.00
2022-09-02T21:56:34.303Z,10.60
2022-09-02T21:59:33.577Z,10.70
2022-09-02T22:02:12.414Z,13.50
2022-09-02T22:04:59.288Z,8.40
2022-09-02T22:07:39.697Z,9.50
2022-09-02T22:10:18.705Z,12.10
2022-09-02T22:12:54.735Z,9.00
2022-09-02T22:15:35.484Z,11.00
2022-09-02T22:18:21.751Z,11.00
2022-09-02T22:21:01.728Z,10.10
2022-09-02T22:23:36.576Z,10.50
2022-09-02T22:26:21.963Z,9.20
2022-09-02T22:29:01.393Z,10.00
2022-09-02T22:31:38.006Z,9.00
2022-09-02T22:34:14.098Z,8.10
2022-09-02T22:37:00.811Z,11.00
2022-09-02T22:39:39.226Z,11.60
2022-09-02T22:42:22.026Z,13.10
2022-09-02T22:45:21.810Z,8.80
2022-09-02T22:48:19.954Z,10.60
2022-09-02T22:51:19.013Z,13.60
2022-09-02T22:53:53.126Z,8.70
2022-09-02T22:56:39.203Z,7.70
2022-09-02T22:59:24.735Z,7.60
2022-09-02T23:02:09.829Z,8.90
2022-09-02T23:05:04.403Z,8.80
2022-09-02T23:07:38.853Z,8.70
2022-09-02T23:10:21.379Z,9.10
2022-09-02T23:13:03.256Z,7.00
2022-09-02T23:15:43.314Z,8.60
2022-09-02T23:18:30.212Z,9.80
2022-09-02T23:21:11.489Z,7.50
2022-09-02T23:23:55.059Z,8.90
2022-09-02T23:26:40.260Z,6.90
2022-09-02T23:29:26.617Z,8.70
2022-09-02T23:32:24.180Z,6.40
2022-09-02T23:35:21.850Z,7.50
2022-09-02T23:38:10.375Z,9.40
2022-09-02T23:43:18.687Z,9.30
2022-09-02T23:45:53.891Z,7.40
2022-09-02T23:48:44.233Z,10.20
2022-09-02T23:51:25.319Z,8.40
2022-09-02T23:54:12.419Z,11.10
2022-09-02T23:56:59.325Z,8.60
2022-09-02T23:59:57.058Z,11.00
